createdAt,value
2023-05-06T00:00:58.541Z,3.70
2023-05-06T00:03:25.147Z,3.42
2023-05-06T00:05:51.982Z,3.80
2023-05-06T00:08:21.036Z,3.58
2023-05-06T00:10:47.577Z,3.50
2023-05-06T00:13:14.098Z,3.80
2023-05-06T00:15:40.689Z,3.95
2023-05-06T00:18:07.226Z,3.83
2023-05-06T00:20:33.734Z,3.80
2023-05-06T00:23:00.565Z,4.03
2023-05-06T00:25:27.091Z,4.32
2023-05-06T00:27:53.682Z,4.10
2023-05-06T00:30:20.242Z,4.30
2023-05-06T00:32:46.786Z,3.67
2023-05-06T00:35:13.382Z,3.88
2023-05-06T00:37:39.866Z,3.78
2023-05-06T00:40:06.903Z,4.43
2023-05-06T00:42:33.427Z,3.78
2023-05-06T00:44:59.947Z,3.83
2023-05-06T00:47:26.498Z,4.00
2023-05-06T00:49:53.195Z,3.55
2023-05-06T00:52:20.024Z,3.88
2023-05-06T00:54:46.665Z,3.83
2023-05-06T00:57:13.489Z,3.95
2023-05-06T00:59:40.401Z,3.75
2023-05-06T01:02:09.469Z,3.95
2023-05-06T01:04:37.449Z,4.15
2023-05-06T01:07:27.248Z,3.58
2023-05-06T01:10:07.899Z,4.63
2023-05-06T01:12:38.010Z,4.03
2023-05-06T01:15:06.520Z,3.50
2023-05-06T01:17:34.179Z,4.10
2023-05-06T01:20:01.686Z,3.92
2023-05-06T01:22:29.102Z,4.00
2023-05-06T01:24:55.675Z,4.50
2023-05-06T01:27:22.584Z,4.10
2023-05-06T01:29:49.316Z,4.47
2023-05-06T01:32:15.808Z,4.00
2023-05-06T01:34:43.820Z,4.10
2023-05-06T01:37:14.455Z,4.20
2023-05-06T01:39:41.911Z,4.15
2023-05-06T01:42:10.124Z,4.00
2023-05-06T01:44:38.562Z,4.22
2023-05-06T01:47:05.568Z,4.32
2023-05-06T01:49:35.169Z,3.78
2023-05-06T01:52:01.882Z,4.22
2023-05-06T01:54:28.947Z,4.35
2023-05-06T01:56:55.501Z,4.45
2023-05-06T01:59:22.010Z,4.60
2023-05-06T02:01:48.598Z,4.43
2023-05-06T02:04:15.358Z,4.40
2023-05-06T02:06:42.590Z,4.53
2023-05-06T02:09:11.315Z,4.22
2023-05-06T02:11:42.287Z,4.40
2023-05-06T02:14:08.755Z,4.68
2023-05-06T02:16:36.374Z,4.47
2023-05-06T02:19:03.332Z,4.63
2023-05-06T02:21:29.796Z,4.25
2023-05-06T02:23:56.291Z,4.60
2023-05-06T02:26:22.785Z,4.32
2023-05-06T02:28:49.249Z,4.57
2023-05-06T02:31:16.249Z,4.80
2023-05-06T02:33:43.511Z,4.55
2023-05-06T02:36:10.823Z,4.38
2023-05-06T02:38:37.346Z,4.28
2023-05-06T02:41:03.986Z,4.30
2023-05-06T02:43:30.612Z,4.60
2023-05-06T02:45:58.195Z,4.70
2023-05-06T02:48:25.615Z,4.50
2023-05-06T02:50:52.179Z,4.00
2023-05-06T02:53:21.333Z,4.15
2023-05-06T02:55:47.854Z,4.60
2023-05-06T02:58:14.489Z,4.30
2023-05-06T03:00:41.036Z,4.70
2023-05-06T03:03:07.717Z,4.18
2023-05-06T03:05:34.361Z,4.55
2023-05-06T03:08:01.061Z,3.97
2023-05-06T03:10:27.683Z,4.50
2023-05-06T03:12:56.062Z,4.63
2023-05-06T03:15:22.639Z,4.57
2023-05-06T03:17:49.359Z,4.72
2023-05-06T03:20:16.297Z,5.18
2023-05-06T03:22:50.058Z,5.30
2023-05-06T03:25:21.135Z,5.15
2023-05-06T03:27:47.697Z,5.32
2023-05-06T03:30:19.765Z,5.65
2023-05-06T03:32:48.839Z,5.57
2023-05-06T03:35:21.532Z,5.28
2023-05-06T03:37:52.556Z,5.43
2023-05-06T03:40:20.651Z,6.00
2023-05-06T03:42:48.005Z,5.72
2023-05-06T03:45:14.755Z,6.03
2023-05-06T03:47:41.322Z,5.63
2023-05-06T03:50:09.660Z,5.47
2023-05-06T03:52:37.772Z,5.80
2023-05-06T03:55:04.998Z,5.53
2023-05-06T03:57:31.717Z,5.40
2023-05-06T03:59:58.355Z,5.57
2023-05-06T04:02:26.953Z,6.05
2023-05-06T04:04:53.772Z,5.72
2023-05-06T04:07:20.354Z,5.70
2023-05-06T04:09:46.821Z,5.70
2023-05-06T04:12:14.135Z,6.22
2023-05-06T04:14:40.771Z,5.60
2023-05-06T04:17:08.325Z,5.88
2023-05-06T04:19:35.017Z,5.88
2023-05-06T04:22:02.203Z,5.95
2023-05-06T04:24:29.405Z,5.80
2023-05-06T04:26:56.296Z,5.70
2023-05-06T04:29:23.638Z,6.15
2023-05-06T04:31:58.078Z,5.75
2023-05-06T04:34:27.752Z,5.68
2023-05-06T04:36:56.527Z,6.30
2023-05-06T04:39:47.030Z,6.40
2023-05-06T04:42:14.393Z,5.93
2023-05-06T04:44:48.906Z,6.30
2023-05-06T04:47:19.765Z,6.00
2023-05-06T04:49:50.296Z,5.63
2023-05-06T04:52:17.010Z,5.80
2023-05-06T04:54:45.447Z,6.78
2023-05-06T04:57:12.756Z,6.03
2023-05-06T04:59:42.608Z,6.22
2023-05-06T05:02:09.168Z,6.07
2023-05-06T05:04:36.447Z,6.00
2023-05-06T05:07:02.955Z,6.25
2023-05-06T05:09:30.979Z,6.57
2023-05-06T05:11:57.762Z,6.40
2023-05-06T05:14:24.294Z,6.40
2023-05-06T05:16:51.216Z,6.13
2023-05-06T05:19:17.770Z,6.65
2023-05-06T05:21:44.780Z,6.72
2023-05-06T05:24:16.019Z,6.40
2023-05-06T05:26:42.552Z,6.38
2023-05-06T05:29:09.093Z,6.38
2023-05-06T05:31:37.266Z,6.35
2023-05-06T05:34:04.107Z,6.38
2023-05-06T05:36:31.468Z,6.22
2023-05-06T05:39:00.136Z,7.57
2023-05-06T05:41:29.684Z,6.45
2023-05-06T05:43:57.274Z,6.50
2023-05-06T05:46:25.897Z,6.07
2023-05-06T05:48:54.663Z,6.30
2023-05-06T05:51:22.751Z,6.40
2023-05-06T05:53:54.660Z,6.88
2023-05-06T05:56:23.602Z,6.72
2023-05-06T05:58:50.336Z,6.18
2023-05-06T06:01:17.651Z,6.32
2023-05-06T06:03:45.758Z,6.57
2023-05-06T06:06:12.724Z,6.47
2023-05-06T06:08:39.859Z,6.45
2023-05-06T06:11:06.920Z,6.30
2023-05-06T06:13:37.925Z,6.60
2023-05-06T06:16:05.473Z,6.93
2023-05-06T06:18:33.614Z,6.55
2023-05-06T06:21:02.517Z,6.28
2023-05-06T06:23:29.210Z,6.95
2023-05-06T06:25:55.831Z,6.72
2023-05-06T06:28:22.372Z,6.80
2023-05-06T06:30:49.333Z,7.00
2023-05-06T06:33:15.930Z,6.93
2023-05-06T06:35:42.395Z,6.63
2023-05-06T06:38:08.918Z,6.53
2023-05-06T06:40:37.013Z,6.95
2023-05-06T06:43:03.552Z,6.47
2023-05-06T06:45:48.744Z,6.55
2023-05-06T06:48:15.459Z,6.90
2023-05-06T06:50:42.045Z,6.85
2023-05-06T06:53:09.091Z,6.88
2023-05-06T06:55:35.678Z,6.55
2023-05-06T06:58:02.571Z,7.10
2023-05-06T07:00:29.050Z,7.00
2023-05-06T07:02:55.656Z,7.35
2023-05-06T07:05:22.192Z,6.45
2023-05-06T07:07:48.701Z,6.60
2023-05-06T07:10:15.224Z,7.18
2023-05-06T07:12:42.218Z,7.38
2023-05-06T07:15:09.230Z,6.57
2023-05-06T07:17:36.103Z,6.55
2023-05-06T07:20:02.730Z,7.00
2023-05-06T07:22:29.294Z,6.65
2023-05-06T07:24:55.875Z,6.80
2023-05-06T07:27:22.414Z,6.88
2023-05-06T07:29:49.962Z,6.65
2023-05-06T07:32:17.128Z,5.82
2023-05-06T07:34:43.631Z,6.20
2023-05-06T07:37:10.148Z,7.03
2023-05-06T07:39:36.768Z,7.05
2023-05-06T07:42:03.345Z,6.72
2023-05-06T07:44:29.861Z,6.63
2023-05-06T07:46:56.523Z,6.32
2023-05-06T07:49:23.249Z,6.40
2023-05-06T07:51:49.820Z,7.10
2023-05-06T07:54:16.359Z,7.50
2023-05-06T07:56:43.954Z,6.88
2023-05-06T07:59:10.519Z,7.18
2023-05-06T08:01:36.998Z,7.10
2023-05-06T08:04:03.674Z,6.80
2023-05-06T08:06:30.448Z,7.43
2023-05-06T08:08:58.723Z,7.15
2023-05-06T08:11:25.234Z,6.80
2023-05-06T08:13:59.153Z,7.55
2023-05-06T08:16:25.844Z,6.55
2023-05-06T08:18:52.397Z,6.85
2023-05-06T08:21:21.359Z,7.00
2023-05-06T08:23:47.866Z,6.97
2023-05-06T08:26:14.364Z,6.90
2023-05-06T08:28:40.849Z,7.40
2023-05-06T08:31:07.337Z,7.40
2023-05-06T08:33:33.788Z,7.60
2023-05-06T08:36:00.370Z,7.88
2023-05-06T08:38:26.904Z,7.45
2023-05-06T08:40:54.327Z,7.68
2023-05-06T08:43:21.364Z,8.13
2023-05-06T08:45:49.416Z,7.55
2023-05-06T08:48:16.668Z,7.40
2023-05-06T08:50:43.391Z,7.32
2023-05-06T08:53:13.403Z,7.20
2023-05-06T08:55:43.028Z,7.30
2023-05-06T08:58:11.283Z,7.13
2023-05-06T09:00:37.931Z,7.68
2023-05-06T09:03:04.600Z,7.30
2023-05-06T09:05:31.251Z,7.38
2023-05-06T09:07:57.887Z,7.18
2023-05-06T09:10:24.419Z,7.90
2023-05-06T09:12:53.662Z,7.95
2023-05-06T09:15:23.544Z,7.25
2023-05-06T09:17:50.167Z,7.20
2023-05-06T09:20:16.630Z,7.70
2023-05-06T09:22:43.438Z,7.45
2023-05-06T09:25:11.930Z,8.25
2023-05-06T09:27:38.857Z,7.40
2023-05-06T09:30:09.376Z,7.78
2023-05-06T09:32:39.103Z,8.00
2023-05-06T09:35:06.998Z,7.10
2023-05-06T09:37:33.482Z,8.00
2023-05-06T09:40:00.735Z,7.88
2023-05-06T09:42:30.647Z,7.30
2023-05-06T09:45:01.969Z,8.00
2023-05-06T09:47:32.568Z,8.18
2023-05-06T09:50:02.003Z,7.20
2023-05-06T09:52:28.918Z,7.00
2023-05-06T09:54:55.781Z,6.85
2023-05-06T09:57:22.582Z,7.82
2023-05-06T09:59:50.606Z,7.22
2023-05-06T10:02:17.463Z,6.43
2023-05-06T10:04:45.982Z,6.90
2023-05-06T10:07:16.510Z,7.05
2023-05-06T10:09:43.029Z,6.25
2023-05-06T10:12:10.768Z,6.60
2023-05-06T10:14:39.681Z,6.22
2023-05-06T10:17:08.231Z,6.13
2023-05-06T10:19:35.162Z,6.32
2023-05-06T10:22:06.383Z,6.63
2023-05-06T10:24:36.885Z,6.40
2023-05-06T10:27:05.706Z,6.53
2023-05-06T10:29:36.849Z,7.32
2023-05-06T10:32:04.222Z,6.97
2023-05-06T10:34:37.437Z,6.88
2023-05-06T10:37:05.785Z,7.13
2023-05-06T10:39:32.733Z,6.90
2023-05-06T10:41:59.233Z,7.70
2023-05-06T10:44:46.157Z,7.10
2023-05-06T10:47:12.816Z,7.10
2023-05-06T10:49:39.302Z,7.25
2023-05-06T10:52:09.745Z,7.90
2023-05-06T10:54:47.427Z,7.85
2023-05-06T10:57:13.984Z,7.90
2023-05-06T10:59:44.732Z,7.90
2023-05-06T11:02:11.643Z,7.47
2023-05-06T11:04:38.723Z,8.50
2023-05-06T11:07:12.488Z,8.52
2023-05-06T11:09:58.120Z,9.30
2023-05-06T11:12:55.775Z,8.88
2023-05-06T11:15:38.769Z,8.35
2023-05-06T11:18:23.945Z,7.82
2023-05-06T11:21:10.929Z,7.72
2023-05-06T11:23:49.563Z,8.25
2023-05-06T11:26:18.905Z,8.57
2023-05-06T11:28:46.546Z,8.30
2023-05-06T11:31:13.820Z,8.73
2023-05-06T11:33:50.342Z,8.55
2023-05-06T11:36:17.905Z,9.05
2023-05-06T11:38:45.563Z,8.05
2023-05-06T11:41:12.865Z,7.93
2023-05-06T11:43:39.544Z,9.05
2023-05-06T11:46:06.459Z,9.13
2023-05-06T11:48:32.981Z,9.07
2023-05-06T11:51:00.427Z,9.50
2023-05-06T11:53:26.949Z,9.32
2023-05-06T11:55:53.876Z,9.15
2023-05-06T11:58:23.580Z,9.25
2023-05-06T12:00:54.019Z,9.43
2023-05-06T12:03:21.470Z,10.15
2023-05-06T12:05:48.764Z,9.02
2023-05-06T12:08:28.324Z,9.50
2023-05-06T12:10:56.452Z,9.55
2023-05-06T12:13:23.147Z,9.07
2023-05-06T12:15:50.352Z,9.38
2023-05-06T12:18:17.077Z,9.02
2023-05-06T12:20:44.290Z,9.23
2023-05-06T12:23:11.589Z,8.88
2023-05-06T12:25:38.628Z,8.80
2023-05-06T12:28:14.657Z,8.05
2023-05-06T12:30:42.081Z,8.13
2023-05-06T12:33:09.380Z,8.57
2023-05-06T12:35:36.061Z,8.10
2023-05-06T12:38:15.602Z,8.77
2023-05-06T12:40:42.899Z,7.70
2023-05-06T12:43:10.081Z,7.70
2023-05-06T12:45:38.895Z,8.00
2023-05-06T12:48:06.718Z,8.25
2023-05-06T12:50:34.854Z,8.30
2023-05-06T12:53:02.069Z,8.57
2023-05-06T12:55:29.969Z,8.32
2023-05-06T12:57:57.844Z,8.30
2023-05-06T13:00:24.549Z,8.82
2023-05-06T13:02:51.158Z,9.20
2023-05-06T13:05:17.713Z,8.63
2023-05-06T13:07:44.354Z,8.50
2023-05-06T13:10:11.594Z,8.75
2023-05-06T13:12:38.581Z,9.50
2023-05-06T13:15:05.513Z,8.93
2023-05-06T13:17:32.085Z,8.63
2023-05-06T13:19:58.658Z,8.27
2023-05-06T13:22:25.369Z,8.95
2023-05-06T13:24:51.869Z,9.80
2023-05-06T13:27:18.380Z,9.90
2023-05-06T13:29:45.051Z,9.95
2023-05-06T13:32:11.572Z,9.95
2023-05-06T13:34:38.081Z,9.77
2023-05-06T13:37:04.609Z,9.80
2023-05-06T13:39:31.082Z,9.20
2023-05-06T13:41:57.561Z,9.00
2023-05-06T13:44:24.654Z,9.20
2023-05-06T13:46:51.416Z,8.73
2023-05-06T13:49:18.527Z,8.80
2023-05-06T13:51:44.964Z,9.07
2023-05-06T13:54:11.544Z,8.65
2023-05-06T13:56:38.080Z,8.93
2023-05-06T13:59:04.596Z,8.43
2023-05-06T14:01:31.135Z,8.57
2023-05-06T14:03:57.697Z,8.30
2023-05-06T14:06:24.382Z,8.50
2023-05-06T14:08:50.900Z,8.52
2023-05-06T14:11:17.441Z,8.20
2023-05-06T14:13:43.997Z,8.43
2023-05-06T14:16:10.625Z,8.88
2023-05-06T14:18:38.367Z,8.45
2023-05-06T14:21:04.925Z,8.00
2023-05-06T14:23:32.506Z,9.25
2023-05-06T14:25:59.131Z,8.50
2023-05-06T14:28:25.846Z,9.00
2023-05-06T14:30:53.164Z,9.93
2023-05-06T14:33:19.706Z,8.93
2023-05-06T14:35:46.383Z,9.27
2023-05-06T14:38:12.910Z,9.85
2023-05-06T14:40:39.470Z,10.30
2023-05-06T14:43:09.117Z,10.13
2023-05-06T14:45:35.738Z,10.63
2023-05-06T14:48:02.455Z,10.48
2023-05-06T14:50:29.699Z,10.60
2023-05-06T14:52:56.355Z,11.02
2023-05-06T14:55:22.929Z,11.07
2023-05-06T14:57:49.578Z,11.55
2023-05-06T15:00:17.250Z,10.05
2023-05-06T15:02:44.014Z,11.35
2023-05-06T15:05:13.378Z,11.82
2023-05-06T15:07:40.264Z,12.75
2023-05-06T15:10:07.211Z,12.07
2023-05-06T15:12:34.168Z,11.82
2023-05-06T15:15:04.994Z,11.55
2023-05-06T15:17:31.703Z,12.63
2023-05-06T15:19:58.263Z,12.20
2023-05-06T15:22:24.786Z,11.63
2023-05-06T15:24:51.333Z,12.60
2023-05-06T15:27:17.868Z,12.38
2023-05-06T15:29:44.407Z,13.02
2023-05-06T15:32:11.040Z,12.77
2023-05-06T15:34:37.653Z,12.73
2023-05-06T15:37:04.353Z,12.60
2023-05-06T15:39:35.578Z,13.70
2023-05-06T15:42:02.192Z,14.20
2023-05-06T15:44:28.770Z,13.73
2023-05-06T15:46:55.410Z,14.10
2023-05-06T15:51:53.052Z,14.02
2023-05-06T15:54:19.722Z,14.55
2023-05-06T15:56:46.662Z,14.32
2023-05-06T15:59:13.323Z,14.77
2023-05-06T16:02:04.731Z,14.07
2023-05-06T16:04:27.526Z,14.60
2023-05-06T16:06:54.472Z,14.35
2023-05-06T16:09:21.061Z,14.38
2023-05-06T16:11:49.799Z,14.73
2023-05-06T16:14:16.378Z,14.73
2023-05-06T16:16:43.016Z,14.48
2023-05-06T16:19:09.618Z,14.32
2023-05-06T16:21:36.262Z,14.93
2023-05-06T16:24:02.815Z,14.85
2023-05-06T16:26:29.486Z,14.82
2023-05-06T16:28:55.994Z,14.43
2023-05-06T16:31:23.185Z,15.05
2023-05-06T16:33:50.874Z,14.85
2023-05-06T16:36:17.336Z,14.30
2023-05-06T16:38:43.810Z,14.68
2023-05-06T16:41:10.363Z,14.93
2023-05-06T16:43:36.848Z,14.65
2023-05-06T16:46:03.350Z,14.07
2023-05-06T16:48:29.911Z,15.70
2023-05-06T16:50:56.565Z,14.65
2023-05-06T16:53:23.082Z,15.07
2023-05-06T16:55:49.936Z,15.82
2023-05-06T16:58:16.554Z,14.90
2023-05-06T17:00:43.244Z,15.60
2023-05-06T17:03:10.103Z,15.45
2023-05-06T17:05:36.956Z,13.93
2023-05-06T17:08:06.970Z,16.15
2023-05-06T17:10:35.029Z,15.60
2023-05-06T17:13:01.650Z,14.93
2023-05-06T17:15:28.218Z,15.55
2023-05-06T17:17:54.835Z,14.30
2023-05-06T17:20:21.447Z,14.80
2023-05-06T17:22:48.042Z,14.93
2023-05-06T17:25:14.847Z,14.48
2023-05-06T17:27:41.424Z,15.63
2023-05-06T17:30:11.891Z,15.48
2023-05-06T17:32:39.544Z,14.48
2023-05-06T17:35:06.558Z,15.85
2023-05-06T17:37:33.484Z,14.80
2023-05-06T17:40:00.144Z,14.68
2023-05-06T17:42:27.520Z,15.15
2023-05-06T17:44:54.373Z,14.80
2023-05-06T17:47:24.390Z,14.63
2023-05-06T17:49:54.142Z,14.65
2023-05-06T17:52:22.361Z,14.90
2023-05-06T17:54:56.935Z,14.00
2023-05-06T17:57:30.266Z,14.70
2023-05-06T17:59:56.756Z,14.63
2023-05-06T18:02:23.413Z,13.63
2023-05-06T18:04:50.088Z,13.57
2023-05-06T18:07:17.003Z,13.93
2023-05-06T18:09:44.619Z,12.80
2023-05-06T18:12:11.248Z,11.70
2023-05-06T18:14:38.134Z,11.38
2023-05-06T18:17:04.717Z,11.25
2023-05-06T18:19:31.192Z,11.52
2023-05-06T18:21:57.723Z,11.68
2023-05-06T18:24:24.192Z,10.88
2023-05-06T18:26:50.693Z,11.82
2023-05-06T18:29:17.449Z,12.32
2023-05-06T18:31:44.117Z,12.10
2023-05-06T18:34:10.832Z,11.40
2023-05-06T18:36:37.453Z,11.25
2023-05-06T18:39:04.742Z,12.07
2023-05-06T18:41:31.331Z,12.95
2023-05-06T18:43:57.837Z,12.02
2023-05-06T18:46:24.615Z,12.27
2023-05-06T18:48:52.251Z,12.75
2023-05-06T18:51:18.845Z,11.98
2023-05-06T18:53:45.449Z,12.32
2023-05-06T18:56:13.365Z,12.10
2023-05-06T18:58:40.178Z,12.45
2023-05-06T19:01:07.406Z,12.98
2023-05-06T19:03:34.626Z,12.82
2023-05-06T19:06:02.746Z,12.40
2023-05-06T19:08:29.555Z,13.50
2023-05-06T19:10:56.326Z,12.75
2023-05-06T19:13:23.008Z,13.88
2023-05-06T19:15:49.750Z,13.75
2023-05-06T19:18:16.701Z,13.35
2023-05-06T19:20:43.249Z,13.13
2023-05-06T19:23:09.992Z,12.52
2023-05-06T19:25:38.202Z,13.55
2023-05-06T19:28:05.557Z,13.50
2023-05-06T19:30:33.625Z,13.50
2023-05-06T19:33:01.175Z,13.35
2023-05-06T19:35:27.965Z,12.52
2023-05-06T19:37:54.476Z,12.93
2023-05-06T19:40:21.977Z,13.45
2023-05-06T19:42:48.614Z,12.80
2023-05-06T19:45:16.743Z,13.23
2023-05-06T19:47:45.760Z,12.73
2023-05-06T19:50:13.753Z,13.10
2023-05-06T19:52:40.483Z,13.60
2023-05-06T19:55:07.453Z,13.52
2023-05-06T19:57:34.151Z,13.18
2023-05-06T20:00:05.353Z,14.15
2023-05-06T20:02:32.963Z,13.30
2023-05-06T20:05:00.622Z,13.50
2023-05-06T20:07:27.516Z,13.10
2023-05-06T20:09:55.916Z,12.38
2023-05-06T20:12:28.581Z,12.40
2023-05-06T20:14:56.034Z,13.20
2023-05-06T20:17:23.063Z,12.70
2023-05-06T20:19:49.882Z,13.45
2023-05-06T20:22:16.367Z,14.70
2023-05-06T20:24:43.399Z,13.93
2023-05-06T20:27:12.574Z,13.68
2023-05-06T20:29:39.164Z,13.20
2023-05-06T20:32:05.756Z,13.60
2023-05-06T20:34:32.404Z,13.48
2023-05-06T20:36:59.803Z,13.70
2023-05-06T20:39:26.307Z,13.63
2023-05-06T20:41:52.809Z,12.90
2023-05-06T20:44:19.320Z,13.27
2023-05-06T20:46:45.777Z,13.40
2023-05-06T20:49:12.319Z,12.60
2023-05-06T20:51:38.837Z,13.45
2023-05-06T20:54:05.573Z,11.88
2023-05-06T20:56:32.106Z,13.15
2023-05-06T20:58:58.658Z,12.68
2023-05-06T21:01:25.857Z,12.25
2023-05-06T21:03:52.541Z,12.73
2023-05-06T21:06:19.199Z,12.90
2023-05-06T21:08:46.326Z,13.13
2023-05-06T21:11:13.044Z,12.35
2023-05-06T21:13:39.888Z,12.75
2023-05-06T21:16:06.384Z,11.98
2023-05-06T21:18:33.002Z,13.05
2023-05-06T21:20:59.811Z,12.70
2023-05-06T21:23:26.607Z,12.52
2023-05-06T21:25:53.260Z,12.38
2023-05-06T21:28:19.801Z,13.07
2023-05-06T21:30:46.472Z,11.55
2023-05-06T21:33:13.087Z,12.38
2023-05-06T21:35:39.629Z,12.48
2023-05-06T21:38:06.600Z,13.05
2023-05-06T21:40:33.112Z,12.45
2023-05-06T21:42:59.796Z,12.48
2023-05-06T21:45:26.767Z,11.57
2023-05-06T21:47:53.412Z,12.48
2023-05-06T21:50:20.277Z,12.65
2023-05-06T21:52:46.808Z,12.32
2023-05-06T21:55:13.527Z,11.68
2023-05-06T21:57:40.147Z,12.23
2023-05-06T22:00:12.115Z,11.90
2023-05-06T22:02:39.858Z,11.77
2023-05-06T22:05:08.631Z,11.93
2023-05-06T22:07:35.911Z,11.95
2023-05-06T22:10:03.007Z,11.45
2023-05-06T22:12:30.144Z,11.63
2023-05-06T22:14:56.873Z,11.57
2023-05-06T22:17:24.228Z,10.88
2023-05-06T22:19:51.582Z,10.60
2023-05-06T22:22:18.712Z,11.20
2023-05-06T22:24:45.322Z,10.93
2023-05-06T22:27:11.838Z,10.85
2023-05-06T22:29:38.397Z,10.30
2023-05-06T22:32:05.358Z,9.88
2023-05-06T22:34:31.928Z,10.00
2023-05-06T22:37:00.432Z,9.10
2023-05-06T22:39:27.651Z,9.55
2023-05-06T22:41:54.135Z,8.63
2023-05-06T22:44:21.118Z,8.20
2023-05-06T22:46:47.809Z,8.82
2023-05-06T22:49:15.984Z,8.98
2023-05-06T22:51:42.732Z,9.18
2023-05-06T22:54:09.327Z,9.00
2023-05-06T22:56:36.106Z,8.77
2023-05-06T22:59:02.720Z,8.52
2023-05-06T23:01:32.742Z,9.30
2023-05-06T23:03:59.607Z,9.05
2023-05-06T23:06:31.018Z,8.48
2023-05-06T23:08:57.701Z,8.82
2023-05-06T23:11:24.441Z,8.77
2023-05-06T23:13:50.921Z,9.18
2023-05-06T23:16:17.529Z,8.50
2023-05-06T23:18:44.052Z,8.40
2023-05-06T23:21:12.529Z,8.48
2023-05-06T23:23:39.154Z,8.52
2023-05-06T23:26:05.675Z,8.95
2023-05-06T23:28:32.158Z,8.57
2023-05-06T23:30:58.925Z,8.88
2023-05-06T23:33:25.578Z,9.00
2023-05-06T23:35:52.107Z,9.23
2023-05-06T23:38:18.630Z,9.07
2023-05-06T23:40:45.222Z,8.57
2023-05-06T23:43:11.711Z,8.73
2023-05-06T23:45:38.329Z,9.32
2023-05-06T23:48:05.398Z,9.32
2023-05-06T23:50:31.957Z,8.93
2023-05-06T23:52:58.433Z,9.20
2023-05-06T23:55:26.393Z,9.05
2023-05-06T23:57:53.044Z,8.02
